createdAt,value
2023-05-16T00:01:07.450Z,11.80
2023-05-16T00:03:55.887Z,10.17
2023-05-16T00:06:44.443Z,10.97
2023-05-16T00:09:32.765Z,10.63
2023-05-16T00:12:22.867Z,10.77
2023-05-16T00:15:14.470Z,10.87
2023-05-16T00:18:04.505Z,11.53
2023-05-16T00:20:53.996Z,11.80
2023-05-16T00:23:42.379Z,11.33
2023-05-16T00:26:30.977Z,10.53
2023-05-16T00:29:19.845Z,11.83
2023-05-16T00:32:09.606Z,11.63
2023-05-16T00:34:59.479Z,12.40
2023-05-16T00:37:48.676Z,12.00
2023-05-16T00:40:38.757Z,11.90
2023-05-16T00:43:27.452Z,11.47
2023-05-16T00:46:16.026Z,12.33
2023-05-16T00:49:05.170Z,12.40
2023-05-16T00:51:55.565Z,12.87
2023-05-16T00:54:44.208Z,15.87
2023-05-16T00:57:33.040Z,14.00
2023-05-16T01:00:22.133Z,14.47
2023-05-16T03:22:31.999Z,22.37
2023-05-16T03:26:14.181Z,20.87
2023-05-16T03:43:42.838Z,22.07
2023-05-16T03:47:28.187Z,22.57
2023-05-16T04:40:19.482Z,26.53
2023-05-16T04:51:07.619Z,28.03
2023-05-16T06:40:18.302Z,13.00
2023-05-16T07:29:58.249Z,8.67
2023-05-16T07:32:47.174Z,7.97
2023-05-16T07:35:36.339Z,7.57
2023-05-16T07:38:26.161Z,8.03
2023-05-16T07:41:17.301Z,10.40
2023-05-16T07:44:09.081Z,7.50
2023-05-16T07:47:02.829Z,7.47
2023-05-16T07:49:53.418Z,6.70
2023-05-16T07:52:47.955Z,7.50
2023-05-16T07:55:43.073Z,6.50
2023-05-16T07:58:32.860Z,6.83
2023-05-16T08:01:22.280Z,5.60
2023-05-16T08:04:16.341Z,5.70
2023-05-16T08:07:05.284Z,5.40
2023-05-16T08:09:54.263Z,4.90
2023-05-16T08:12:43.135Z,5.37
2023-05-16T08:15:32.429Z,5.27
2023-05-16T08:18:22.501Z,5.00
2023-05-16T08:21:17.953Z,5.60
2023-05-16T08:24:07.726Z,4.80
2023-05-16T08:26:56.863Z,5.60
2023-05-16T08:29:46.066Z,4.97
2023-05-16T08:32:35.804Z,5.53
2023-05-16T08:35:24.846Z,5.00
2023-05-16T08:38:14.954Z,4.53
2023-05-16T08:41:03.846Z,4.73
2023-05-16T08:43:52.525Z,4.60
2023-05-16T08:46:42.911Z,4.37
2023-05-16T08:49:33.223Z,8.30
2023-05-16T08:52:23.467Z,3.80
2023-05-16T08:55:19.057Z,4.63
2023-05-16T08:58:10.649Z,3.63
2023-05-16T09:00:59.558Z,4.13
2023-05-16T09:03:49.035Z,4.00
2023-05-16T09:06:37.756Z,3.97
2023-05-16T09:09:27.291Z,3.20
2023-05-16T09:12:19.484Z,3.77
2023-05-16T09:15:11.575Z,3.13
2023-05-16T09:18:03.763Z,5.23
2023-05-16T09:20:53.625Z,3.13
2023-05-16T09:23:45.032Z,3.37
2023-05-16T09:26:40.374Z,3.70
2023-05-16T09:29:31.998Z,2.87
2023-05-16T09:32:28.393Z,3.73
2023-05-16T09:35:24.259Z,7.63
2023-05-16T09:38:25.333Z,3.40
2023-05-16T09:41:19.185Z,3.43
2023-05-16T09:44:10.604Z,3.23
2023-05-16T09:47:01.029Z,2.90
2023-05-16T09:49:54.793Z,3.27
2023-05-16T09:52:47.384Z,3.60
2023-05-16T09:55:36.459Z,3.43
2023-05-16T09:58:35.241Z,3.80
2023-05-16T10:01:27.387Z,3.07
2023-05-16T10:04:17.975Z,3.87
2023-05-16T10:07:09.928Z,3.20
2023-05-16T10:09:59.465Z,4.13
2023-05-16T10:12:50.462Z,4.40
2023-05-16T10:15:40.954Z,3.50
2023-05-16T10:18:33.450Z,4.47
2023-05-16T10:21:29.884Z,3.97
2023-05-16T10:24:28.292Z,3.07
2023-05-16T10:27:19.225Z,3.73
2023-05-16T10:30:10.091Z,7.77
2023-05-16T10:33:00.052Z,8.53
2023-05-16T10:35:49.404Z,4.30
2023-05-16T10:38:43.672Z,4.50
2023-05-16T10:41:34.380Z,5.70
2023-05-16T10:44:24.029Z,4.47
2023-05-16T10:47:12.982Z,4.30
2023-05-16T10:50:03.113Z,5.30
2023-05-16T10:52:54.750Z,4.47
2023-05-16T10:55:52.269Z,4.43
2023-05-16T10:58:51.178Z,5.43
2023-05-16T11:01:42.412Z,5.27
2023-05-16T11:04:50.694Z,4.70
2023-05-16T11:07:39.459Z,3.70
2023-05-16T11:10:28.734Z,4.50
2023-05-16T11:13:29.357Z,4.07
2023-05-16T11:16:31.702Z,3.57
2023-05-16T11:19:36.376Z,5.67
2023-05-16T11:22:27.456Z,4.90
2023-05-16T11:25:16.828Z,3.47
2023-05-16T11:28:06.371Z,5.10
2023-05-16T11:30:58.685Z,3.93
2023-05-16T11:33:48.247Z,3.67
2023-05-16T11:36:38.427Z,3.07
2023-05-16T11:39:27.174Z,7.80
2023-05-16T11:42:18.191Z,6.60
2023-05-16T11:46:11.123Z,4.47
2023-05-16T16:46:37.173Z,2.03
2023-05-16T16:49:27.394Z,3.00
2023-05-16T16:52:16.803Z,2.47
2023-05-16T16:55:07.396Z,2.50
2023-05-16T16:57:58.010Z,1.80
2023-05-16T17:00:50.780Z,2.83
2023-05-16T17:03:42.721Z,2.37
2023-05-16T17:06:32.262Z,1.77
2023-05-16T17:09:28.174Z,2.40
2023-05-16T17:12:22.319Z,1.97
2023-05-16T17:15:16.290Z,1.77
2023-05-16T17:18:09.997Z,2.40
2023-05-16T17:21:01.116Z,2.20
2023-05-16T17:23:54.403Z,2.57
2023-05-16T17:26:45.963Z,2.00
2023-05-16T17:29:34.757Z,2.50
2023-05-16T17:32:23.742Z,2.20
2023-05-16T17:35:13.192Z,3.27
2023-05-16T17:38:06.352Z,2.30
2023-05-16T17:40:56.317Z,2.63
2023-05-16T17:43:47.043Z,4.63
2023-05-16T17:46:38.569Z,1.93
2023-05-16T17:49:32.223Z,2.37
2023-05-16T17:52:23.555Z,2.90
2023-05-16T17:55:14.374Z,5.33
2023-05-16T17:58:07.303Z,2.23
2023-05-16T18:01:00.155Z,2.30
2023-05-16T18:03:50.560Z,4.87
2023-05-16T18:06:45.090Z,3.10
2023-05-16T18:09:37.259Z,2.57
2023-05-16T18:12:29.788Z,1.87
2023-05-16T18:15:22.836Z,3.80
2023-05-16T18:18:23.704Z,2.23
2023-05-16T18:21:14.314Z,3.27
2023-05-16T18:24:04.123Z,5.20
2023-05-16T18:26:54.161Z,2.40
2023-05-16T18:29:46.329Z,3.17
2023-05-16T18:32:36.761Z,2.30
2023-05-16T18:35:28.990Z,11.23
2023-05-16T18:38:31.363Z,4.90
2023-05-16T18:41:25.134Z,12.57
2023-05-16T18:44:17.399Z,2.20
2023-05-16T22:17:44.662Z,3.10
2023-05-16T22:20:33.365Z,2.53
2023-05-16T22:23:21.844Z,3.10
2023-05-16T22:26:11.720Z,3.20
2023-05-16T22:29:00.813Z,3.00
2023-05-16T22:31:49.362Z,2.43
2023-05-16T22:34:40.459Z,1.93
2023-05-16T22:37:29.289Z,2.00
2023-05-16T22:40:18.057Z,2.37
2023-05-16T22:43:06.999Z,4.17
2023-05-16T22:45:56.183Z,2.90
2023-05-16T22:48:44.900Z,2.40
2023-05-16T22:51:38.697Z,2.57
2023-05-16T22:54:28.053Z,2.77
2023-05-16T22:57:17.845Z,3.03
2023-05-16T23:00:08.034Z,2.50
2023-05-16T23:02:58.022Z,3.07
2023-05-16T23:05:49.384Z,2.40
2023-05-16T23:08:41.187Z,1.90
2023-05-16T23:11:32.344Z,3.23
2023-05-16T23:14:24.100Z,2.60
2023-05-16T23:17:17.562Z,2.80
2023-05-16T23:20:08.734Z,2.57
2023-05-16T23:22:57.914Z,3.47
2023-05-16T23:25:51.111Z,2.90
2023-05-16T23:28:49.200Z,3.20
2023-05-16T23:31:41.623Z,2.70
2023-05-16T23:34:30.910Z,2.47
2023-05-16T23:37:20.709Z,2.40
2023-05-16T23:40:11.657Z,2.60
2023-05-16T23:43:05.821Z,2.70
